createdAt,value
2018-12-02T00:09:10.185Z,98.11
2018-12-02T00:19:29.268Z,98.17
2018-12-02T00:29:48.645Z,98.17
2018-12-02T00:40:12.187Z,98.17
2018-12-02T00:50:32.365Z,98.18
2018-12-02T01:00:52.235Z,98.23
2018-12-02T01:11:10.930Z,98.17
2018-12-02T01:21:31.301Z,98.12
2018-12-02T01:31:51.302Z,98.00
2018-12-02T01:42:10.658Z,97.84
2018-12-02T01:52:30.091Z,97.63
2018-12-02T02:02:49.735Z,97.56
2018-12-02T02:13:08.834Z,97.40
2018-12-02T02:23:28.332Z,96.74
2018-12-02T02:33:47.844Z,97.04
2018-12-02T02:44:08.126Z,96.93
2018-12-02T02:54:26.899Z,96.76
2018-12-02T03:04:46.106Z,96.76
2018-12-02T03:15:07.775Z,96.53
2018-12-02T03:25:27.567Z,96.49
2018-12-02T03:35:47.604Z,96.38
2018-12-02T03:46:07.382Z,96.24
2018-12-02T03:56:28.109Z,95.86
2018-12-02T04:06:46.938Z,95.69
2018-12-02T04:17:06.207Z,95.69
2018-12-02T04:27:25.513Z,95.46
2018-12-02T04:37:45.075Z,95.05
2018-12-02T04:48:04.899Z,94.75
2018-12-02T04:58:24.187Z,94.71
2018-12-02T05:08:43.364Z,94.42
2018-12-02T05:19:02.851Z,94.17
2018-12-02T05:29:22.435Z,94.18
2018-12-02T05:39:41.727Z,94.18
2018-12-02T05:50:01.121Z,94.29
2018-12-02T06:00:21.416Z,94.46
2018-12-02T06:10:42.438Z,94.48
2018-12-02T06:21:01.863Z,94.53
2018-12-02T06:31:20.687Z,94.55
2018-12-02T06:41:40.724Z,94.61
2018-12-02T06:52:00.802Z,94.13
2018-12-02T07:02:37.291Z,93.99
2018-12-02T07:12:57.169Z,93.98
2018-12-02T07:23:16.424Z,93.98
2018-12-02T07:33:36.330Z,94.11
2018-12-02T07:44:08.166Z,93.94
2018-12-02T07:54:27.995Z,93.18
2018-12-02T08:04:47.394Z,92.26
2018-12-02T08:15:11.295Z,90.77
2018-12-02T08:25:30.904Z,90.77
2018-12-02T08:35:50.472Z,89.90
2018-12-02T08:46:09.783Z,90.45
2018-12-02T08:56:30.178Z,90.24
2018-12-02T09:06:50.174Z,90.02
2018-12-02T09:17:10.128Z,89.28
2018-12-02T09:27:29.500Z,89.04
2018-12-02T09:37:48.589Z,88.83
2018-12-02T09:48:08.196Z,88.02
2018-12-02T09:58:29.964Z,88.27
2018-12-02T10:08:50.377Z,88.41
2018-12-02T10:19:10.041Z,87.51
2018-12-02T10:29:30.542Z,87.67
2018-12-02T10:39:51.377Z,87.48
2018-12-02T10:50:18.540Z,87.93
2018-12-02T11:00:55.757Z,86.82
2018-12-02T11:11:17.282Z,86.05
2018-12-02T11:21:36.881Z,85.33
2018-12-02T11:31:56.917Z,86.64
2018-12-02T11:42:16.429Z,86.08
2018-12-02T11:52:36.084Z,86.23
2018-12-02T12:02:56.845Z,86.31
2018-12-02T12:13:18.147Z,85.60
2018-12-02T12:23:38.043Z,85.87
2018-12-02T12:33:58.090Z,85.46
2018-12-02T12:44:18.420Z,85.84
2018-12-02T12:54:38.589Z,86.42
2018-12-02T13:04:58.246Z,85.49
2018-12-02T13:15:19.703Z,86.67
2018-12-02T13:25:39.665Z,85.70
2018-12-02T13:35:59.490Z,86.87
2018-12-02T13:46:19.441Z,86.87
2018-12-02T13:56:40.165Z,87.38
2018-12-02T14:06:59.211Z,87.38
2018-12-02T14:17:22.621Z,87.47
2018-12-02T14:27:44.773Z,89.58
2018-12-02T14:38:04.201Z,89.58
2018-12-02T14:48:23.642Z,89.76
2018-12-02T14:58:43.933Z,90.13
2018-12-02T15:09:08.456Z,90.13
2018-12-02T15:19:29.549Z,89.48
2018-12-02T15:29:49.993Z,89.58
2018-12-02T15:40:13.991Z,89.15
2018-12-02T15:50:36.793Z,90.40
2018-12-02T16:00:59.799Z,90.88
2018-12-02T16:11:21.184Z,90.47
2018-12-02T16:21:41.687Z,90.04
2018-12-02T16:32:03.970Z,89.82
2018-12-02T16:42:25.015Z,90.16
2018-12-02T16:52:48.113Z,90.16
2018-12-02T17:03:08.963Z,90.83
2018-12-02T17:13:29.864Z,90.56
2018-12-02T17:23:55.944Z,90.51
2018-12-02T17:34:20.190Z,90.51
2018-12-02T17:44:39.860Z,90.47
2018-12-02T17:55:00.444Z,90.67
2018-12-02T18:05:39.150Z,91.21
2018-12-02T18:16:02.965Z,91.08
2018-12-02T18:26:24.115Z,90.78
2018-12-02T18:36:44.913Z,90.33
2018-12-02T18:47:06.640Z,90.59
2018-12-02T18:57:31.015Z,90.52
2018-12-02T19:07:51.027Z,90.50
2018-12-02T19:18:15.113Z,90.88
2018-12-02T19:28:36.191Z,91.01
2018-12-02T19:38:58.675Z,90.90
2018-12-02T19:49:19.782Z,91.01
2018-12-02T19:59:43.671Z,91.17
2018-12-02T20:10:05.761Z,91.25
2018-12-02T20:20:53.486Z,91.39
2018-12-02T20:31:20.766Z,91.49
2018-12-02T20:41:43.833Z,91.69
2018-12-02T20:52:05.563Z,91.90
2018-12-02T21:02:28.725Z,91.90
2018-12-02T21:12:50.428Z,91.88
2018-12-02T21:23:11.240Z,91.82
2018-12-02T21:33:31.248Z,91.82
2018-12-02T21:43:51.382Z,91.83
2018-12-02T21:54:10.957Z,91.96
2018-12-02T22:04:31.311Z,92.08
2018-12-02T22:14:53.558Z,92.61
2018-12-02T22:25:14.277Z,92.80
2018-12-02T22:35:34.097Z,92.65
2018-12-02T22:45:54.656Z,92.69
2018-12-02T22:56:14.042Z,92.70
2018-12-02T23:06:33.265Z,92.90
2018-12-02T23:17:21.043Z,93.18
2018-12-02T23:27:40.223Z,93.56
2018-12-02T23:37:59.449Z,93.62
2018-12-02T23:48:19.611Z,93.78
2018-12-02T23:58:39.971Z,94.08
